sensor_id;sensor_type;location;lat;lon;timestamp;pressure;altitude;pressure_sealevel;temperature;humidity
40384;BME280;26097;42.366;23.818;2023-05-10T00:01:24;94397.03;;;6.70;100.00
40384;BME280;26097;42.366;23.818;2023-05-10T00:04:25;94387.44;;;6.72;100.00
40384;BME280;26097;42.366;23.818;2023-05-10T00:07:27;94384.22;;;6.67;100.00
40384;BME280;26097;42.366;23.818;2023-05-10T00:10:27;94394.38;;;6.56;100.00
40384;BME280;26097;42.366;23.818;2023-05-10T00:13:28;94385.59;;;6.59;100.00
40384;BME280;26097;42.366;23.818;2023-05-10T00:16:28;94384.94;;;6.55;100.00
40384;BME280;26097;42.366;23.818;2023-05-10T00:19:29;94380.91;;;6.49;100.00
40384;BME280;26097;42.366;23.818;2023-05-10T00:22:29;94391.97;;;6.53;100.00
40384;BME280;26097;42.366;23.818;2023-05-10T00:25:29;94389.09;;;6.41;100.00
40384;BME280;26097;42.366;23.818;2023-05-10T00:28:30;94376.34;;;6.38;100.00
40384;BME280;26097;42.366;23.818;2023-05-10T00:31:30;94372.91;;;6.38;100.00
40384;BME280;26097;42.366;23.818;2023-05-10T00:34:30;94388.28;;;6.25;100.00
40384;BME280;26097;42.366;23.818;2023-05-10T00:37:31;94384.75;;;6.10;100.00
40384;BME280;26097;42.366;23.818;2023-05-10T00:40:31;94386.41;;;5.95;100.00
40384;BME280;26097;42.366;23.818;2023-05-10T00:43:32;94388.69;;;5.83;100.00
40384;BME280;26097;42.366;23.818;2023-05-10T00:46:32;94392.53;;;5.76;100.00
40384;BME280;26097;42.366;23.818;2023-05-10T00:49:33;94380.06;;;5.67;100.00
40384;BME280;26097;42.366;23.818;2023-05-10T00:52:34;94385.63;;;5.59;100.00
40384;BME280;26097;42.366;23.818;2023-05-10T00:55:34;94397.16;;;5.53;100.00
40384;BME280;26097;42.366;23.818;2023-05-10T00:58:35;94396.38;;;5.51;100.00
40384;BME280;26097;42.366;23.818;2023-05-10T01:01:35;94395.59;;;5.49;100.00
40384;BME280;26097;42.366;23.818;2023-05-10T01:04:37;94387.72;;;5.52;100.00
40384;BME280;26097;42.366;23.818;2023-05-10T01:07:39;94395.59;;;5.49;100.00
40384;BME280;26097;42.366;23.818;2023-05-10T01:10:40;94398.19;;;5.49;100.00
40384;BME280;26097;42.366;23.818;2023-05-10T01:13:42;94389.09;;;5.42;100.00
40384;BME280;26097;42.366;23.818;2023-05-10T01:16:44;94390.91;;;5.40;100.00
40384;BME280;26097;42.366;23.818;2023-05-10T01:19:46;94393.56;;;5.38;100.00
40384;BME280;26097;42.366;23.818;2023-05-10T01:23:16;94401.25;;;5.40;100.00
40384;BME280;26097;42.366;23.818;2023-05-10T01:33:11;94415.47;;;5.49;100.00
40384;BME280;26097;42.366;23.818;2023-05-10T01:42:53;94402.59;;;5.47;100.00
40384;BME280;26097;42.366;23.818;2023-05-10T01:46:03;94397.31;;;5.50;100.00
40384;BME280;26097;42.366;23.818;2023-05-10T01:49:28;94399.72;;;5.53;100.00
40384;BME280;26097;42.366;23.818;2023-05-10T01:52:41;94394.94;;;5.46;100.00
40384;BME280;26097;42.366;23.818;2023-05-10T01:55:49;94396.03;;;5.41;100.00
40384;BME280;26097;42.366;23.818;2023-05-10T01:58:52;94399.59;;;5.39;100.00
40384;BME280;26097;42.366;23.818;2023-05-10T02:01:54;94400.66;;;5.35;100.00
40384;BME280;26097;42.366;23.818;2023-05-10T02:04:56;94399.59;;;5.39;100.00
40384;BME280;26097;42.366;23.818;2023-05-10T02:07:59;94400.34;;;5.41;100.00
40384;BME280;26097;42.366;23.818;2023-05-10T02:11:01;94398.59;;;5.41;100.00
40384;BME280;26097;42.366;23.818;2023-05-10T02:14:06;94399.59;;;5.39;100.00
40384;BME280;26097;42.366;23.818;2023-05-10T02:17:08;94396.56;;;5.31;100.00
40384;BME280;26097;42.366;23.818;2023-05-10T02:20:10;94401.75;;;5.31;100.00
40384;BME280;26097;42.366;23.818;2023-05-10T02:23:12;94403.91;;;5.38;100.00
40384;BME280;26097;42.366;23.818;2023-05-10T02:26:14;94397.06;;;5.37;100.00
40384;BME280;26097;42.366;23.818;2023-05-10T02:29:16;94391.47;;;5.29;100.00
40384;BME280;26097;42.366;23.818;2023-05-10T02:32:17;94389.41;;;5.36;100.00
40384;BME280;26097;42.366;23.818;2023-05-10T02:35:19;94393.81;;;5.34;100.00
40384;BME280;26097;42.366;23.818;2023-05-10T02:38:20;94385.38;;;5.30;100.00
40384;BME280;26097;42.366;23.818;2023-05-10T02:41:22;94382.84;;;5.28;100.00
40384;BME280;26097;42.366;23.818;2023-05-10T02:44:23;94383.72;;;5.29;100.00
40384;BME280;26097;42.366;23.818;2023-05-10T02:47:26;94383.72;;;5.29;100.00
40384;BME280;26097;42.366;23.818;2023-05-10T02:50:30;94388.03;;;5.28;100.00
40384;BME280;26097;42.366;23.818;2023-05-10T02:53:34;94382.41;;;5.20;100.00
40384;BME280;26097;42.366;23.818;2023-05-10T02:56:40;94378.84;;;5.23;100.00
40384;BME280;26097;42.366;23.818;2023-05-10T02:59:42;94387.28;;;5.26;100.00
40384;BME280;26097;42.366;23.818;2023-05-10T03:02:43;94379.53;;;5.26;100.00
40384;BME280;26097;42.366;23.818;2023-05-10T03:05:43;94379.22;;;5.33;100.00
40384;BME280;26097;42.366;23.818;2023-05-10T03:08:44;94377.41;;;5.35;100.00
40384;BME280;26097;42.366;23.818;2023-05-10T03:12:00;94381.06;;;5.31;100.00
40384;BME280;26097;42.366;23.818;2023-05-10T03:18:09;94386.34;;;5.27;100.00
40384;BME280;26097;42.366;23.818;2023-05-10T03:21:11;94377.41;;;5.35;100.00
40384;BME280;26097;42.366;23.818;2023-05-10T03:24:13;94377.41;;;5.35;100.00
40384;BME280;26097;42.366;23.818;2023-05-10T03:27:16;94378.91;;;5.39;100.00
40384;BME280;26097;42.366;23.818;2023-05-10T03:30:17;94381.56;;;5.37;100.00
40384;BME280;26097;42.366;23.818;2023-05-10T03:33:18;94381.72;;;5.34;100.00
40384;BME280;26097;42.366;23.818;2023-05-10T03:36:19;94383.47;;;5.34;100.00
40384;BME280;26097;42.366;23.818;2023-05-10T03:39:19;94389.41;;;5.36;100.00
40384;BME280;26097;42.366;23.818;2023-05-10T03:42:21;94384.06;;;5.39;100.00
40384;BME280;26097;42.366;23.818;2023-05-10T03:45:21;94379.34;;;5.47;100.00
40384;BME280;26097;42.366;23.818;2023-05-10T03:48:22;94386.13;;;5.50;100.00
40384;BME280;26097;42.366;23.818;2023-05-10T03:51:22;94386.81;;;5.53;100.00
40384;BME280;26097;42.366;23.818;2023-05-10T03:54:23;94388.47;;;5.54;100.00
40384;BME280;26097;42.366;23.818;2023-05-10T03:57:23;94390.13;;;5.55;100.00
40384;BME280;26097;42.366;23.818;2023-05-10T04:00:24;94394.16;;;5.61;100.00
40384;BME280;26097;42.366;23.818;2023-05-10T04:03:24;94399.47;;;5.58;100.00
40384;BME280;26097;42.366;23.818;2023-05-10T04:06:26;94397.75;;;5.58;100.00
40384;BME280;26097;42.366;23.818;2023-05-10T04:09:26;94400.16;;;5.62;100.00
40384;BME280;26097;42.366;23.818;2023-05-10T04:12:27;94394.81;;;5.65;100.00
40384;BME280;26097;42.366;23.818;2023-05-10T04:15:27;94393.09;;;5.65;100.00
40384;BME280;26097;42.366;23.818;2023-05-10T04:18:27;94392.19;;;5.66;100.00
40384;BME280;26097;42.366;23.818;2023-05-10T04:21:28;94394.53;;;5.71;100.00
40384;BME280;26097;42.366;23.818;2023-05-10T04:24:28;94399.38;;;5.77;100.00
40384;BME280;26097;42.366;23.818;2023-05-10T04:27:29;94394.25;;;5.76;100.00
40384;BME280;26097;42.366;23.818;2023-05-10T04:30:29;94388.53;;;5.86;100.00
40384;BME280;26097;42.366;23.818;2023-05-10T04:33:30;94393.69;;;5.86;100.00
40384;BME280;26097;42.366;23.818;2023-05-10T04:36:30;94388.53;;;5.86;100.00
40384;BME280;26097;42.366;23.818;2023-05-10T04:39:32;94393.31;;;5.94;100.00
40384;BME280;26097;42.366;23.818;2023-05-10T04:42:33;94381.66;;;6.03;100.00
40384;BME280;26097;42.366;23.818;2023-05-10T04:45:33;94382.25;;;6.08;100.00
40384;BME280;26097;42.366;23.818;2023-05-10T04:48:33;94388.78;;;6.16;100.00
40384;BME280;26097;42.366;23.818;2023-05-10T04:51:34;94380.78;;;6.20;100.00
40384;BME280;26097;42.366;23.818;2023-05-10T04:54:34;94387.94;;;6.15;100.00
40384;BME280;26097;42.366;23.818;2023-05-10T04:57:35;94384.19;;;6.21;100.00
40384;BME280;26097;42.366;23.818;2023-05-10T05:00:35;94382.78;;;6.31;100.00
40384;BME280;26097;42.366;23.818;2023-05-10T05:03:36;94386.69;;;6.38;100.00
40384;BME280;26097;42.366;23.818;2023-05-10T05:06:36;94394.28;;;6.41;100.00
40384;BME280;26097;42.366;23.818;2023-05-10T05:09:37;94397.22;;;6.35;100.00
40384;BME280;26097;42.366;23.818;2023-05-10T05:12:37;94395.63;;;6.33;100.00
40384;BME280;26097;42.366;23.818;2023-05-10T05:15:37;94398.78;;;6.38;100.00
40384;BME280;26097;42.366;23.818;2023-05-10T05:18:38;94402.97;;;6.40;100.00
40384;BME280;26097;42.366;23.818;2023-05-10T05:21:39;94394.28;;;6.41;100.00
40384;BME280;26097;42.366;23.818;2023-05-10T05:24:40;94394.03;;;6.46;100.00
40384;BME280;26097;42.366;23.818;2023-05-10T05:27:40;94398.81;;;6.54;100.00
40384;BME280;26097;42.366;23.818;2023-05-10T05:30:41;94397.97;;;6.53;100.00
40384;BME280;26097;42.366;23.818;2023-05-10T05:33:41;94397.03;;;6.54;100.00
40384;BME280;26097;42.366;23.818;2023-05-10T05:36:42;94402.81;;;6.43;100.00
40384;BME280;26097;42.366;23.818;2023-05-10T05:39:42;94401.66;;;6.33;100.00
40384;BME280;26097;42.366;23.818;2023-05-10T05:42:43;94396.81;;;6.43;100.00
40384;BME280;26097;42.366;23.818;2023-05-10T05:45:43;94395.97;;;6.42;100.00
40384;BME280;26097;42.366;23.818;2023-05-10T05:48:44;94400.97;;;6.46;100.00
40384;BME280;26097;42.366;23.818;2023-05-10T05:51:44;94400.97;;;6.46;100.00
40384;BME280;26097;42.366;23.818;2023-05-10T05:54:45;94396.22;;;6.54;100.00
40384;BME280;26097;42.366;23.818;2023-05-10T05:57:45;94402.56;;;6.48;100.00
40384;BME280;26097;42.366;23.818;2023-05-10T06:00:46;94401.56;;;6.51;100.00
40384;BME280;26097;42.366;23.818;2023-05-10T06:03:46;94402.97;;;6.56;100.00
40384;BME280;26097;42.366;23.818;2023-05-10T06:06:46;94412.75;;;6.51;100.00
40384;BME280;26097;42.366;23.818;2023-05-10T06:09:47;94401.06;;;6.44;100.00
40384;BME280;26097;42.366;23.818;2023-05-10T06:12:47;94415.16;;;6.54;100.00
40384;BME280;26097;42.366;23.818;2023-05-10T06:15:48;94410.31;;;6.64;100.00
40384;BME280;26097;42.366;23.818;2023-05-10T06:18:48;94412.22;;;6.77;100.00
40384;BME280;26097;42.366;23.818;2023-05-10T06:21:48;94423.00;;;6.69;100.00
40384;BME280;26097;42.366;23.818;2023-05-10T06:24:49;94416.09;;;6.69;100.00
40384;BME280;26097;42.366;23.818;2023-05-10T06:27:49;94424.50;;;6.89;100.00
40384;BME280;26097;42.366;23.818;2023-05-10T06:30:50;94418.72;;;6.84;100.00
40384;BME280;26097;42.366;23.818;2023-05-10T06:33:51;94418.91;;;6.81;100.00
40384;BME280;26097;42.366;23.818;2023-05-10T06:36:51;94419.16;;;6.92;100.00
40384;BME280;26097;42.366;23.818;2023-05-10T06:39:51;94423.81;;;7.02;100.00
40384;BME280;26097;42.366;23.818;2023-05-10T06:42:52;94422.75;;;7.20;100.00
40384;BME280;26097;42.366;23.818;2023-05-10T06:45:52;94423.53;;;7.37;100.00
40384;BME280;26097;42.366;23.818;2023-05-10T06:48:53;94421.63;;;7.55;100.00
40384;BME280;26097;42.366;23.818;2023-05-10T06:51:53;94414.25;;;7.63;100.00
40384;BME280;26097;42.366;23.818;2023-05-10T06:54:53;94425.28;;;7.67;100.00
40384;BME280;26097;42.366;23.818;2023-05-10T06:57:54;94425.47;;;7.78;100.00
40384;BME280;26097;42.366;23.818;2023-05-10T07:01:01;94422.22;;;7.89;100.00
40384;BME280;26097;42.366;23.818;2023-05-10T07:04:02;94428.09;;;8.07;100.00
40384;BME280;26097;42.366;23.818;2023-05-10T07:07:02;94427.72;;;8.13;100.00
40384;BME280;26097;42.366;23.818;2023-05-10T07:10:03;94429.81;;;7.92;100.00
40384;BME280;26097;42.366;23.818;2023-05-10T07:13:04;94426.22;;;7.95;100.00
40384;BME280;26097;42.366;23.818;2023-05-10T07:16:04;94420.38;;;8.06;100.00
40384;BME280;26097;42.366;23.818;2023-05-10T07:19:06;94427.69;;;7.99;100.00
40384;BME280;26097;42.366;23.818;2023-05-10T07:22:07;94432.28;;;7.65;100.00
40384;BME280;26097;42.366;23.818;2023-05-10T07:25:08;94436.56;;;7.51;100.00
40384;BME280;26097;42.366;23.818;2023-05-10T07:28:08;94443.00;;;7.29;100.00
40384;BME280;26097;42.366;23.818;2023-05-10T07:31:08;94443.31;;;7.23;100.00
40384;BME280;26097;42.366;23.818;2023-05-10T07:34:09;94446.25;;;7.48;100.00
40384;BME280;26097;42.366;23.818;2023-05-10T07:37:09;94438.56;;;7.46;100.00
40384;BME280;26097;42.366;23.818;2023-05-10T07:40:10;94442.50;;;7.82;100.00
40384;BME280;26097;42.366;23.818;2023-05-10T07:43:10;94442.34;;;8.14;100.00
40384;BME280;26097;42.366;23.818;2023-05-10T07:46:11;94438.53;;;8.35;100.00
40384;BME280;26097;42.366;23.818;2023-05-10T07:49:11;94437.13;;;8.58;100.00
40384;BME280;26097;42.366;23.818;2023-05-10T07:52:12;94440.84;;;8.68;100.00
40384;BME280;26097;42.366;23.818;2023-05-10T07:55:12;94441.03;;;8.65;100.00
40384;BME280;26097;42.366;23.818;2023-05-10T07:58:12;94448.44;;;8.42;100.00
40384;BME280;26097;42.366;23.818;2023-05-10T08:01:13;94441.78;;;8.53;100.00
40384;BME280;26097;42.366;23.818;2023-05-10T08:04:13;94433.09;;;9.49;100.00
40384;BME280;26097;42.366;23.818;2023-05-10T08:07:14;94430.00;;;9.70;100.00
40384;BME280;26097;42.366;23.818;2023-05-10T08:10:14;94427.91;;;10.01;100.00
40384;BME280;26097;42.366;23.818;2023-05-10T08:13:14;94431.88;;;9.68;100.00
40384;BME280;26097;42.366;23.818;2023-05-10T08:16:16;94434.88;;;9.21;100.00
40384;BME280;26097;42.366;23.818;2023-05-10T08:19:16;94440.75;;;9.38;100.00
40384;BME280;26097;42.366;23.818;2023-05-10T08:22:19;94436.75;;;9.72;100.00
40384;BME280;26097;42.366;23.818;2023-05-10T08:25:20;94442.88;;;9.58;100.00
40384;BME280;26097;42.366;23.818;2023-05-10T08:28:20;94441.78;;;9.76;100.00
40384;BME280;26097;42.366;23.818;2023-05-10T08:31:20;94441.41;;;9.41;100.00
40384;BME280;26097;42.366;23.818;2023-05-10T08:34:21;94448.28;;;9.55;100.00
40384;BME280;26097;42.366;23.818;2023-05-10T08:37:23;94448.09;;;9.58;100.00
40384;BME280;26097;42.366;23.818;2023-05-10T08:40:24;94441.03;;;10.12;100.00
40384;BME280;26097;42.366;23.818;2023-05-10T08:43:27;94437.00;;;10.71;100.00
40384;BME280;26097;42.366;23.818;2023-05-10T08:46:29;94442.72;;;10.77;100.00
40384;BME280;26097;42.366;23.818;2023-05-10T08:49:32;94437.25;;;10.93;100.00
40384;BME280;26097;42.366;23.818;2023-05-10T08:52:34;94443.59;;;10.89;100.00
40384;BME280;26097;42.366;23.818;2023-05-10T08:55:39;94451.94;;;10.69;100.00
40384;BME280;26097;42.366;23.818;2023-05-10T08:58:42;94431.19;;;10.55;100.00
40384;BME280;26097;42.366;23.818;2023-05-10T09:01:44;94438.06;;;10.56;100.00
40384;BME280;26097;42.366;23.818;2023-05-10T09:04:45;94441.44;;;10.82;100.00
40384;BME280;26097;42.366;23.818;2023-05-10T09:07:46;94445.03;;;11.06;100.00
40384;BME280;26097;42.366;23.818;2023-05-10T09:10:48;94441.63;;;11.41;100.00
40384;BME280;26097;42.366;23.818;2023-05-10T09:13:50;94442.81;;;11.48;100.00
40384;BME280;26097;42.366;23.818;2023-05-10T09:16:51;94443.28;;;11.42;100.00
40384;BME280;26097;42.366;23.818;2023-05-10T09:19:58;94445.28;;;11.38;100.00
40384;BME280;26097;42.366;23.818;2023-05-10T09:22:59;94445.19;;;10.91;100.00
40384;BME280;26097;42.366;23.818;2023-05-10T09:26:06;94449.56;;;10.40;100.00
40384;BME280;26097;42.366;23.818;2023-05-10T09:29:06;94443.81;;;10.35;100.00
40384;BME280;26097;42.366;23.818;2023-05-10T09:32:08;94446.03;;;10.15;100.00
40384;BME280;26097;42.366;23.818;2023-05-10T09:35:13;94447.19;;;10.11;100.00
40384;BME280;26097;42.366;23.818;2023-05-10T09:38:14;94444.56;;;10.11;100.00
40384;BME280;26097;42.366;23.818;2023-05-10T09:41:21;94438.75;;;9.95;100.00
40384;BME280;26097;42.366;23.818;2023-05-10T09:44:22;94441.63;;;9.51;100.00
40384;BME280;26097;42.366;23.818;2023-05-10T09:47:23;94440.97;;;9.35;100.00
40384;BME280;26097;42.366;23.818;2023-05-10T09:50:24;94433.63;;;9.14;100.00
40384;BME280;26097;42.366;23.818;2023-05-10T09:53:25;94431.03;;;8.86;100.00
40384;BME280;26097;42.366;23.818;2023-05-10T09:56:35;94424.22;;;8.98;100.00
40384;BME280;26097;42.366;23.818;2023-05-10T09:59:42;94427.69;;;9.12;100.00
40384;BME280;26097;42.366;23.818;2023-05-10T10:02:45;94420.94;;;9.22;100.00
40384;BME280;26097;42.366;23.818;2023-05-10T10:05:47;94424.00;;;9.02;100.00
40384;BME280;26097;42.366;23.818;2023-05-10T10:08:47;94424.16;;;9.13;100.00
40384;BME280;26097;42.366;23.818;2023-05-10T10:11:48;94429.56;;;9.10;100.00
40384;BME280;26097;42.366;23.818;2023-05-10T10:14:49;94428.28;;;9.03;100.00
40384;BME280;26097;42.366;23.818;2023-05-10T10:17:51;94422.69;;;9.09;100.00
40384;BME280;26097;42.366;23.818;2023-05-10T10:20:52;94425.28;;;9.09;100.00
40384;BME280;26097;42.366;23.818;2023-05-10T10:23:54;94426.97;;;8.82;100.00
40384;BME280;26097;42.366;23.818;2023-05-10T10:26:59;94420.19;;;8.80;100.00
40384;BME280;26097;42.366;23.818;2023-05-10T10:36:46;94434.25;;;8.63;100.00
40384;BME280;26097;42.366;23.818;2023-05-10T10:39:50;94425.25;;;8.68;100.00
40384;BME280;26097;42.366;23.818;2023-05-10T10:42:50;94429.91;;;8.49;100.00
40384;BME280;26097;42.366;23.818;2023-05-10T10:46:16;94433.81;;;8.56;100.00
40384;BME280;26097;42.366;23.818;2023-05-10T10:49:17;94423.25;;;8.72;100.00
40384;BME280;26097;42.366;23.818;2023-05-10T10:55:21;94422.00;;;8.65;100.00
40384;BME280;26097;42.366;23.818;2023-05-10T10:58:30;94436.44;;;8.83;100.00
40384;BME280;26097;42.366;23.818;2023-05-10T11:01:34;94430.44;;;8.68;100.00
40384;BME280;26097;42.366;23.818;2023-05-10T11:04:42;94431.78;;;8.74;100.00
40384;BME280;26097;42.366;23.818;2023-05-10T11:07:54;94433.63;;;8.86;100.00
40384;BME280;26097;42.366;23.818;2023-05-10T11:14:03;94427.53;;;9.00;100.00
40384;BME280;26097;42.366;23.818;2023-05-10T11:17:43;94425.75;;;8.88;100.00
40384;BME280;26097;42.366;23.818;2023-05-10T11:20:43;94426.47;;;8.90;100.00
40384;BME280;26097;42.366;23.818;2023-05-10T11:26:49;94425.97;;;8.70;100.00
40384;BME280;26097;42.366;23.818;2023-05-10T11:29:53;94425.59;;;8.77;100.00
40384;BME280;26097;42.366;23.818;2023-05-10T11:32:53;94421.31;;;8.76;100.00
40384;BME280;26097;42.366;23.818;2023-05-10T11:35:54;94418.72;;;8.76;100.00
40384;BME280;26097;42.366;23.818;2023-05-10T11:38:56;94422.53;;;8.70;100.00
40384;BME280;26097;42.366;23.818;2023-05-10T11:41:57;94423.88;;;8.63;100.00
40384;BME280;26097;42.366;23.818;2023-05-10T11:45:00;94422.47;;;8.57;100.00
40384;BME280;26097;42.366;23.818;2023-05-10T11:48:01;94420.78;;;8.70;100.00
40384;BME280;26097;42.366;23.818;2023-05-10T11:51:02;94417.22;;;8.86;100.00
40384;BME280;26097;42.366;23.818;2023-05-10T11:54:07;94420.22;;;8.93;100.00
40384;BME280;26097;42.366;23.818;2023-05-10T11:57:09;94426.84;;;8.84;100.00
40384;BME280;26097;42.366;23.818;2023-05-10T12:00:10;94429.66;;;9.08;100.00
40384;BME280;26097;42.366;23.818;2023-05-10T12:03:11;94416.34;;;9.13;100.00
40384;BME280;26097;42.366;23.818;2023-05-10T12:06:11;94419.69;;;9.15;100.00
40384;BME280;26097;42.366;23.818;2023-05-10T12:09:12;94414.06;;;9.21;100.00
40384;BME280;26097;42.366;23.818;2023-05-10T12:12:16;94417.00;;;9.17;100.00
40384;BME280;26097;42.366;23.818;2023-05-10T12:15:22;94417.09;;;9.15;100.00
40384;BME280;26097;42.366;23.818;2023-05-10T12:18:23;94413.69;;;9.27;100.00
40384;BME280;26097;42.366;23.818;2023-05-10T12:21:25;94412.75;;;9.28;100.00
40384;BME280;26097;42.366;23.818;2023-05-10T12:24:27;94410.53;;;9.22;100.00
40384;BME280;26097;42.366;23.818;2023-05-10T12:27:31;94401.63;;;9.26;100.00
40384;BME280;26097;42.366;23.818;2023-05-10T12:30:34;94405.31;;;9.09;100.00
40384;BME280;26097;42.366;23.818;2023-05-10T12:33:40;94403.66;;;9.08;100.00
40384;BME280;26097;42.366;23.818;2023-05-10T12:36:44;94406.03;;;9.11;100.00
40384;BME280;26097;42.366;23.818;2023-05-10T12:39:44;94407.06;;;8.96;100.00
40384;BME280;26097;42.366;23.818;2023-05-10T12:42:46;94393.88;;;9.12;100.00
40384;BME280;26097;42.366;23.818;2023-05-10T12:45:47;94393.47;;;9.18;100.00
40384;BME280;26097;42.366;23.818;2023-05-10T12:48:48;94386.03;;;9.26;100.00
40384;BME280;26097;42.366;23.818;2023-05-10T12:51:54;94392.44;;;9.21;100.00
40384;BME280;26097;42.366;23.818;2023-05-10T12:54:55;94393.09;;;9.24;100.00
40384;BME280;26097;42.366;23.818;2023-05-10T12:57:55;94392.06;;;8.99;100.00
40384;BME280;26097;42.366;23.818;2023-05-10T13:00:56;94385.34;;;9.10;100.00
40384;BME280;26097;42.366;23.818;2023-05-10T13:03:56;94385.81;;;9.29;100.00
40384;BME280;26097;42.366;23.818;2023-05-10T13:06:57;94381.25;;;9.46;100.00
40384;BME280;26097;42.366;23.818;2023-05-10T13:09:58;94371.88;;;9.56;100.00
40384;BME280;26097;42.366;23.818;2023-05-10T13:12:59;94371.56;;;9.74;100.00
40384;BME280;26097;42.366;23.818;2023-05-10T13:15:59;94362.19;;;9.58;100.00
40384;BME280;26097;42.366;23.818;2023-05-10T13:19:00;94368.84;;;9.63;100.00
40384;BME280;26097;42.366;23.818;2023-05-10T13:22:00;94358.47;;;9.89;100.00
40384;BME280;26097;42.366;23.818;2023-05-10T13:25:01;94352.31;;;9.90;100.00
40384;BME280;26097;42.366;23.818;2023-05-10T13:28:02;94353.66;;;9.82;100.00
40384;BME280;26097;42.366;23.818;2023-05-10T13:31:02;94355.41;;;9.95;100.00
40384;BME280;26097;42.366;23.818;2023-05-10T13:34:03;94345.09;;;10.06;100.00
40384;BME280;26097;42.366;23.818;2023-05-10T13:37:03;94343.03;;;9.98;100.00
40384;BME280;26097;42.366;23.818;2023-05-10T13:40:04;94343.97;;;9.71;100.00
40384;BME280;26097;42.366;23.818;2023-05-10T13:43:05;94342.63;;;9.79;100.00
40384;BME280;26097;42.366;23.818;2023-05-10T13:46:05;94339.19;;;9.78;100.00
40384;BME280;26097;42.366;23.818;2023-05-10T13:49:05;94342.31;;;9.57;100.00
40384;BME280;26097;42.366;23.818;2023-05-10T13:52:06;94341.28;;;9.60;100.00
40384;BME280;26097;42.366;23.818;2023-05-10T13:55:10;94331.19;;;9.55;100.00
40384;BME280;26097;42.366;23.818;2023-05-10T13:58:12;94338.34;;;9.52;100.00
40384;BME280;26097;42.366;23.818;2023-05-10T14:01:12;94332.31;;;9.77;100.00
40384;BME280;26097;42.366;23.818;2023-05-10T14:04:13;94329.81;;;9.89;100.00
40384;BME280;26097;42.366;23.818;2023-05-10T14:07:13;94327.50;;;9.97;100.00
40384;BME280;26097;42.366;23.818;2023-05-10T14:10:14;94322.53;;;9.81;100.00
40384;BME280;26097;42.366;23.818;2023-05-10T14:13:14;94339.31;;;9.77;100.00
40384;BME280;26097;42.366;23.818;2023-05-10T14:16:15;94325.47;;;9.50;100.00
40384;BME280;26097;42.366;23.818;2023-05-10T14:19:15;94325.47;;;9.63;100.00
40384;BME280;26097;42.366;23.818;2023-05-10T14:22:16;94330.88;;;9.73;100.00
40384;BME280;26097;42.366;23.818;2023-05-10T14:25:16;94325.00;;;9.82;100.00
40384;BME280;26097;42.366;23.818;2023-05-10T14:28:18;94328.13;;;10.00;100.00
40384;BME280;26097;42.366;23.818;2023-05-10T14:31:18;94334.72;;;9.93;100.00
40384;BME280;26097;42.366;23.818;2023-05-10T14:34:20;94329.38;;;9.95;100.00
40384;BME280;26097;42.366;23.818;2023-05-10T14:37:20;94326.44;;;10.12;100.00
40384;BME280;26097;42.366;23.818;2023-05-10T14:40:21;94322.25;;;10.23;100.00
40384;BME280;26097;42.366;23.818;2023-05-10T14:43:21;94331.84;;;10.09;100.00
40384;BME280;26097;42.366;23.818;2023-05-10T14:46:22;94327.81;;;10.29;100.00
40384;BME280;26097;42.366;23.818;2023-05-10T14:49:22;94325.72;;;10.48;100.00
40384;BME280;26097;42.366;23.818;2023-05-10T14:52:25;94325.72;;;10.48;100.00
40384;BME280;26097;42.366;23.818;2023-05-10T14:55:26;94328.34;;;10.35;100.00
40384;BME280;26097;42.366;23.818;2023-05-10T14:58:26;94328.22;;;10.36;100.00
40384;BME280;26097;42.366;23.818;2023-05-10T15:01:27;94333.88;;;10.43;100.00
40384;BME280;26097;42.366;23.818;2023-05-10T15:04:27;94337.22;;;10.32;100.00
40384;BME280;26097;42.366;23.818;2023-05-10T15:07:27;94331.72;;;10.24;100.00
40384;BME280;26097;42.366;23.818;2023-05-10T15:10:28;94329.13;;;10.11;100.00
40384;BME280;26097;42.366;23.818;2023-05-10T15:13:28;94331.16;;;9.94;100.00
40384;BME280;26097;42.366;23.818;2023-05-10T15:16:29;94326.50;;;9.86;100.00
40384;BME280;26097;42.366;23.818;2023-05-10T15:19:29;94335.53;;;9.81;100.00
40384;BME280;26097;42.366;23.818;2023-05-10T15:22:30;94331.50;;;9.77;100.00
40384;BME280;26097;42.366;23.818;2023-05-10T15:25:31;94331.81;;;9.72;100.00
40384;BME280;26097;42.366;23.818;2023-05-10T15:28:34;94322.94;;;9.62;100.00
40384;BME280;26097;42.366;23.818;2023-05-10T15:31:35;94322.56;;;9.68;100.00
40384;BME280;26097;42.366;23.818;2023-05-10T15:34:35;94316.28;;;9.70;100.00
40384;BME280;26097;42.366;23.818;2023-05-10T15:37:37;94314.75;;;9.68;100.00
40384;BME280;26097;42.366;23.818;2023-05-10T15:40:37;94317.56;;;9.65;100.00
40384;BME280;26097;42.366;23.818;2023-05-10T15:43:38;94310.69;;;9.64;100.00
40384;BME280;26097;42.366;23.818;2023-05-10T15:46:38;94314.63;;;9.56;100.00
40384;BME280;26097;42.366;23.818;2023-05-10T15:49:38;94315.06;;;9.50;100.00
40384;BME280;26097;42.366;23.818;2023-05-10T15:52:39;94312.66;;;9.47;100.00
40384;BME280;26097;42.366;23.818;2023-05-10T15:55:39;94313.41;;;9.36;100.00
40384;BME280;26097;42.366;23.818;2023-05-10T15:58:40;94312.66;;;9.21;100.00
40384;BME280;26097;42.366;23.818;2023-05-10T16:01:41;94311.41;;;9.14;100.00
40384;BME280;26097;42.366;23.818;2023-05-10T16:04:41;94314.22;;;9.11;100.00
40384;BME280;26097;42.366;23.818;2023-05-10T16:07:43;94317.94;;;9.07;100.00
40384;BME280;26097;42.366;23.818;2023-05-10T16:10:43;94326.13;;;9.00;100.00
40384;BME280;26097;42.366;23.818;2023-05-10T16:13:44;94316.28;;;9.06;100.00
40384;BME280;26097;42.366;23.818;2023-05-10T16:16:44;94324.09;;;9.06;100.00
40384;BME280;26097;42.366;23.818;2023-05-10T16:19:45;94322.94;;;8.97;100.00